createdAt,value
2023-02-12T00:00:48.949Z,79.80
2023-02-12T00:01:48.944Z,79.90
2023-02-12T00:02:48.958Z,79.90
2023-02-12T00:03:48.953Z,79.69
2023-02-12T00:04:48.992Z,79.58
2023-02-12T00:05:48.873Z,79.62
2023-02-12T00:06:48.895Z,79.94
2023-02-12T00:07:48.861Z,80.25
2023-02-12T00:08:48.920Z,80.56
2023-02-12T00:09:48.851Z,80.56
2023-02-12T00:10:48.976Z,80.25
2023-02-12T00:11:48.793Z,79.94
2023-02-12T00:12:48.943Z,80.15
2023-02-12T00:13:48.763Z,81.08
2023-02-12T00:14:49.000Z,81.18
2023-02-12T00:15:48.763Z,80.56
2023-02-12T00:16:48.756Z,80.66
2023-02-12T00:17:48.723Z,80.77
2023-02-12T00:18:48.872Z,81.12
2023-02-12T00:19:48.751Z,81.63
2023-02-12T00:20:48.898Z,81.53
2023-02-12T00:21:48.664Z,81.43
2023-02-12T00:22:48.685Z,81.63
2023-02-12T00:23:48.628Z,81.74
2023-02-12T00:24:48.802Z,81.74
2023-02-12T00:25:48.627Z,81.74
2023-02-12T00:26:48.711Z,81.84
2023-02-12T00:27:48.633Z,81.95
2023-02-12T00:28:48.659Z,82.05
2023-02-12T00:29:48.546Z,82.36
2023-02-12T00:30:48.816Z,82.57
2023-02-12T00:31:48.625Z,82.36
2023-02-12T00:32:48.569Z,82.68
2023-02-12T00:33:48.497Z,82.89
2023-02-12T00:34:48.692Z,83.30
2023-02-12T00:35:48.487Z,83.40
2023-02-12T00:36:48.534Z,83.30
2023-02-12T00:37:48.472Z,83.20
2023-02-12T00:38:48.537Z,83.09
2023-02-12T00:39:48.423Z,83.09
2023-02-12T00:40:48.520Z,82.99
2023-02-12T00:41:48.455Z,82.99
2023-02-12T00:42:48.638Z,83.09
2023-02-12T00:43:48.398Z,82.78
2023-02-12T00:44:48.443Z,82.68
2023-02-12T00:45:48.393Z,82.89
2023-02-12T00:46:48.650Z,82.36
2023-02-12T00:47:48.342Z,82.26
2023-02-12T00:48:48.481Z,82.05
2023-02-12T00:49:48.352Z,82.15
2023-02-12T00:50:48.383Z,82.15
2023-02-12T00:51:48.456Z,82.05
2023-02-12T00:52:48.247Z,82.05
2023-02-12T00:53:48.334Z,82.05
2023-02-12T00:54:48.287Z,81.84
2023-02-12T00:55:48.329Z,81.53
2023-02-12T00:56:48.336Z,81.22
2023-02-12T00:57:48.205Z,81.12
2023-02-12T00:58:48.380Z,81.01
2023-02-12T00:59:48.214Z,81.12
2023-02-12T01:00:48.246Z,81.12
2023-02-12T01:01:48.283Z,81.01
2023-02-12T01:02:48.118Z,80.98
2023-02-12T01:03:48.305Z,81.08
2023-02-12T01:04:48.153Z,81.18
2023-02-12T01:05:48.185Z,81.18
2023-02-12T01:06:48.085Z,81.08
2023-02-12T01:07:48.207Z,81.01
2023-02-12T01:08:48.076Z,80.77
2023-02-12T01:09:48.220Z,80.70
2023-02-12T01:10:48.059Z,80.91
2023-02-12T01:11:48.130Z,81.32
2023-02-12T01:12:48.003Z,81.74
2023-02-12T01:13:48.232Z,81.84
2023-02-12T01:14:47.969Z,81.95
2023-02-12T01:15:48.238Z,81.95
2023-02-12T01:16:47.951Z,81.84
2023-02-12T01:17:48.088Z,81.84
2023-02-12T01:18:47.945Z,81.84
2023-02-12T01:19:48.033Z,81.74
2023-02-12T01:20:47.910Z,81.95
2023-02-12T01:21:47.989Z,82.09
2023-02-12T01:22:47.980Z,82.05
2023-02-12T01:23:47.917Z,81.98
2023-02-12T01:24:47.974Z,82.20
2023-02-12T01:25:47.837Z,82.40
2023-02-12T01:26:47.933Z,82.40
2023-02-12T01:27:47.963Z,82.30
2023-02-12T01:28:47.837Z,82.30
2023-02-12T01:29:47.877Z,82.20
2023-02-12T01:30:47.827Z,81.98
2023-02-12T01:31:48.063Z,82.09
2023-02-12T01:32:47.778Z,82.09
2023-02-12T01:33:47.868Z,82.40
2023-02-12T01:34:47.788Z,82.51
2023-02-12T01:35:47.774Z,82.61
2023-02-12T01:36:47.769Z,82.82
2023-02-12T01:37:47.792Z,82.71
2023-02-12T01:38:47.709Z,83.03
2023-02-12T01:39:47.832Z,82.92
2023-02-12T01:40:47.685Z,82.92
2023-02-12T01:41:47.716Z,82.82
2023-02-12T01:42:47.657Z,82.82
2023-02-12T01:43:47.743Z,83.03
2023-02-12T01:44:47.658Z,83.23
2023-02-12T01:45:47.655Z,83.34
2023-02-12T01:46:47.723Z,83.23
2023-02-12T01:47:47.672Z,83.54
2023-02-12T01:48:47.694Z,83.75
2023-02-12T01:49:47.539Z,83.96
2023-02-12T01:50:47.696Z,83.75
2023-02-12T01:51:47.520Z,83.96
2023-02-12T01:52:47.664Z,84.06
2023-02-12T01:53:47.494Z,84.27
2023-02-12T01:54:47.618Z,84.38
2023-02-12T01:55:47.496Z,84.21
2023-02-12T01:56:47.640Z,84.31
2023-02-12T01:57:47.485Z,84.17
2023-02-12T01:58:47.662Z,83.96
2023-02-12T01:59:47.445Z,83.86
2023-02-12T02:00:47.588Z,83.86
2023-02-12T02:01:47.565Z,83.86
2023-02-12T02:02:47.559Z,83.65
2023-02-12T02:03:47.354Z,83.54
2023-02-12T02:04:47.487Z,83.34
2023-02-12T02:05:47.369Z,83.23
2023-02-12T02:06:47.493Z,83.23
2023-02-12T02:07:47.331Z,83.54
2023-02-12T02:08:47.452Z,83.75
2023-02-12T02:09:47.409Z,83.96
2023-02-12T02:10:47.312Z,84.06
2023-02-12T02:11:47.456Z,83.96
2023-02-12T02:12:47.290Z,83.96
2023-02-12T02:13:47.311Z,83.54
2023-02-12T02:14:47.288Z,83.09
2023-02-12T02:15:47.388Z,82.89
2023-02-12T02:16:47.232Z,82.68
2023-02-12T02:17:47.383Z,82.78
2023-02-12T02:18:47.204Z,82.89
2023-02-12T02:19:47.356Z,82.78
2023-02-12T02:20:47.204Z,82.68
2023-02-12T02:21:48.210Z,82.68
2023-02-12T02:22:47.156Z,82.57
2023-02-12T02:23:47.197Z,82.57
2023-02-12T02:24:47.134Z,82.36
2023-02-12T02:25:47.243Z,82.36
2023-02-12T02:26:47.143Z,82.36
2023-02-12T02:27:47.106Z,82.22
2023-02-12T02:28:47.086Z,82.22
2023-02-12T02:29:47.147Z,82.22
2023-02-12T02:30:47.175Z,82.22
2023-02-12T02:31:47.284Z,82.12
2023-02-12T02:32:47.179Z,82.01
2023-02-12T02:33:47.024Z,81.91
2023-02-12T02:34:47.129Z,82.12
2023-02-12T02:35:46.971Z,82.32
2023-02-12T02:36:59.629Z,82.53
2023-02-12T02:37:46.975Z,82.64
2023-02-12T02:38:47.054Z,82.84
2023-02-12T02:39:46.929Z,82.84
2023-02-12T02:40:47.142Z,82.95
2023-02-12T02:41:46.985Z,82.74
2023-02-12T02:42:47.004Z,82.64
2023-02-12T02:43:46.878Z,82.43
2023-02-12T02:44:46.990Z,82.32
2023-02-12T02:45:46.855Z,82.32
2023-02-12T02:46:47.160Z,82.22
2023-02-12T02:47:46.852Z,82.32
2023-02-12T02:48:46.962Z,82.57
2023-02-12T02:49:46.798Z,82.78
2023-02-12T02:50:46.898Z,82.99
2023-02-12T02:51:46.773Z,83.09
2023-02-12T02:52:47.063Z,83.30
2023-02-12T02:53:46.746Z,83.30
2023-02-12T02:54:46.812Z,83.51
2023-02-12T02:55:46.755Z,83.75
2023-02-12T02:56:46.830Z,83.82
2023-02-12T02:57:46.702Z,84.06
2023-02-12T02:58:46.861Z,83.96
2023-02-12T02:59:46.702Z,83.75
2023-02-12T03:00:46.816Z,83.65
2023-02-12T03:01:46.674Z,83.65
2023-02-12T03:02:46.806Z,83.86
2023-02-12T03:03:46.660Z,84.17
2023-02-12T03:04:46.773Z,83.96
2023-02-12T03:05:46.621Z,83.86
2023-02-12T03:06:46.796Z,83.54
2023-02-12T03:07:46.675Z,83.54
2023-02-12T03:08:46.584Z,83.65
2023-02-12T03:09:46.662Z,83.65
2023-02-12T03:10:46.563Z,83.75
2023-02-12T03:11:46.603Z,83.96
2023-02-12T03:12:46.731Z,84.17
2023-02-12T03:13:46.500Z,84.31
2023-02-12T03:14:46.651Z,84.42
2023-02-12T03:15:46.503Z,84.52
2023-02-12T03:16:46.665Z,84.73
2023-02-12T03:17:46.449Z,84.73
2023-02-12T03:18:46.665Z,84.83
2023-02-12T03:19:46.417Z,84.94
2023-02-12T03:20:46.530Z,85.04
2023-02-12T03:21:46.424Z,84.94
2023-02-12T03:22:46.508Z,84.73
2023-02-12T03:23:46.383Z,84.63
2023-02-12T03:24:46.508Z,84.63
2023-02-12T03:25:46.350Z,84.94
2023-02-12T03:26:46.559Z,85.04
2023-02-12T03:27:46.324Z,85.14
2023-02-12T03:28:46.542Z,84.94
2023-02-12T03:29:46.302Z,84.83
2023-02-12T03:30:46.567Z,84.63
2023-02-12T03:31:46.331Z,84.63
2023-02-12T03:32:46.367Z,84.73
2023-02-12T03:33:46.368Z,84.73
2023-02-12T03:34:46.283Z,84.63
2023-02-12T03:35:46.300Z,84.52
2023-02-12T03:36:46.248Z,84.52
2023-02-12T03:37:46.317Z,84.42
2023-02-12T03:38:52.398Z,84.42
2023-02-12T03:39:47.609Z,84.52
2023-02-12T03:40:46.187Z,84.21
2023-02-12T03:41:46.313Z,84.11
2023-02-12T03:42:46.158Z,84.11
2023-02-12T03:43:46.255Z,84.11
2023-02-12T03:44:46.158Z,84.11
2023-02-12T03:45:46.302Z,84.17
2023-02-12T03:46:46.127Z,84.17
2023-02-12T03:47:46.199Z,83.96
2023-02-12T03:48:46.124Z,83.86
2023-02-12T03:49:46.151Z,83.75
2023-02-12T03:50:46.084Z,83.54
2023-02-12T03:51:46.163Z,83.44
2023-02-12T03:52:46.092Z,83.54
2023-02-12T03:53:46.125Z,83.44
2023-02-12T03:54:46.099Z,83.54
2023-02-12T03:55:45.978Z,83.80
2023-02-12T03:56:46.117Z,83.80
2023-02-12T03:57:45.961Z,83.86
2023-02-12T03:58:46.083Z,83.86
2023-02-12T04:00:09.336Z,83.75
2023-02-12T04:00:46.131Z,83.96
2023-02-12T04:01:46.086Z,83.75
2023-02-12T04:02:46.152Z,83.54
2023-02-12T04:03:45.917Z,83.65
2023-02-12T04:04:46.023Z,83.86
2023-02-12T04:05:45.876Z,83.86
2023-02-12T04:06:45.977Z,83.75
2023-02-12T04:07:45.833Z,83.86
2023-02-12T04:08:46.051Z,83.96
2023-02-12T04:09:45.808Z,84.17
2023-02-12T04:10:46.018Z,84.17
2023-02-12T04:11:45.792Z,84.06
2023-02-12T04:12:45.914Z,83.92
2023-02-12T04:13:45.786Z,83.82
2023-02-12T04:14:45.947Z,83.51
2023-02-12T04:15:45.734Z,84.13
2023-02-12T04:16:45.994Z,83.92
2023-02-12T04:17:45.698Z,83.61
2023-02-12T04:18:45.985Z,83.72
2023-02-12T04:19:45.700Z,83.72
2023-02-12T04:20:45.867Z,83.72
2023-02-12T04:21:45.651Z,83.61
2023-02-12T04:22:45.776Z,83.92
2023-02-12T04:23:45.638Z,84.13
2023-02-12T04:24:45.691Z,83.92
2023-02-12T04:25:45.726Z,83.82
2023-02-12T04:26:45.644Z,83.82
2023-02-12T04:27:45.710Z,83.92
2023-02-12T04:28:45.602Z,83.92
2023-02-12T04:29:45.724Z,83.82
2023-02-12T04:30:45.989Z,84.03
2023-02-12T04:31:45.732Z,83.92
2023-02-12T04:32:45.659Z,84.03
2023-02-12T04:33:45.509Z,84.03
2023-02-12T04:34:45.667Z,84.13
2023-02-12T04:35:45.507Z,84.03
2023-02-12T04:36:45.688Z,84.03
2023-02-12T04:37:45.465Z,84.03
2023-02-12T04:38:45.582Z,84.03
2023-02-12T04:39:45.431Z,83.92
2023-02-12T04:40:45.619Z,83.92
2023-02-12T04:41:45.440Z,84.03
2023-02-12T04:42:45.690Z,84.03
2023-02-12T04:43:45.392Z,84.03
2023-02-12T04:44:45.644Z,84.13
2023-02-12T04:45:45.434Z,84.34
2023-02-12T04:46:45.452Z,84.23
2023-02-12T04:47:45.367Z,84.23
2023-02-12T04:48:45.463Z,84.44
2023-02-12T04:49:45.320Z,84.75
2023-02-12T04:50:45.489Z,85.00
2023-02-12T04:51:45.458Z,85.21
2023-02-12T04:52:45.305Z,85.31
2023-02-12T04:53:45.430Z,85.31
2023-02-12T04:54:45.285Z,85.31
2023-02-12T04:55:45.285Z,85.21
2023-02-12T04:56:45.307Z,85.11
2023-02-12T04:57:45.216Z,85.11
2023-02-12T04:58:45.327Z,85.00
2023-02-12T04:59:45.246Z,85.11
2023-02-12T05:00:45.346Z,85.06
2023-02-12T05:01:45.210Z,84.75
2023-02-12T05:02:45.179Z,84.75
2023-02-12T05:03:45.286Z,84.65
2023-02-12T05:04:45.191Z,84.75
2023-02-12T05:05:45.263Z,84.80
2023-02-12T05:06:45.139Z,84.80
2023-02-12T05:07:45.176Z,84.55
2023-02-12T05:08:45.091Z,84.65
2023-02-12T05:09:45.223Z,84.65
2023-02-12T05:10:45.076Z,84.55
2023-02-12T05:11:45.131Z,84.44
2023-02-12T05:12:45.085Z,84.34
2023-02-12T05:13:45.107Z,84.13
2023-02-12T05:14:45.032Z,84.13
2023-02-12T05:15:45.356Z,84.13
2023-02-12T05:16:44.996Z,84.27
2023-02-12T05:17:45.037Z,84.48
2023-02-12T05:18:45.000Z,84.59
2023-02-12T05:19:45.043Z,84.80
2023-02-12T05:20:44.959Z,85.00
2023-02-12T05:21:45.062Z,85.21
2023-02-12T05:22:45.128Z,85.35
2023-02-12T05:23:44.901Z,85.35
2023-02-12T05:24:45.103Z,85.56
2023-02-12T05:25:44.910Z,85.77
2023-02-12T05:26:45.011Z,85.98
2023-02-12T05:27:45.086Z,86.08
2023-02-12T05:28:44.863Z,86.08
2023-02-12T05:29:45.026Z,86.08
2023-02-12T05:30:45.088Z,86.08
2023-02-12T05:31:44.965Z,85.98
2023-02-12T05:32:44.806Z,86.02
2023-02-12T05:33:44.835Z,86.02
2023-02-12T05:34:44.764Z,86.12
2023-02-12T05:35:44.850Z,86.12
2023-02-12T05:36:44.797Z,86.12
2023-02-12T05:37:44.767Z,86.22
2023-02-12T05:38:44.732Z,86.22
2023-02-12T05:39:44.786Z,86.22
2023-02-12T05:40:44.685Z,86.22
2023-02-12T05:41:44.856Z,86.33
2023-02-12T05:42:44.687Z,86.43
2023-02-12T05:43:47.134Z,86.43
2023-02-12T05:44:44.650Z,86.65
2023-02-12T05:45:44.846Z,86.75
2023-02-12T05:46:44.716Z,86.75
2023-02-12T05:47:44.809Z,86.71
2023-02-12T05:48:44.571Z,86.81
2023-02-12T05:49:44.760Z,86.60
2023-02-12T05:50:44.550Z,86.40
2023-02-12T05:51:44.789Z,86.40
2023-02-12T05:52:44.565Z,86.19
2023-02-12T05:53:44.800Z,85.98
2023-02-12T05:54:44.540Z,85.88
2023-02-12T05:55:44.589Z,85.98
2023-02-12T05:56:44.482Z,86.19
2023-02-12T05:57:44.617Z,86.40
2023-02-12T05:58:44.481Z,86.40
2023-02-12T05:59:44.679Z,86.19
2023-02-12T06:00:44.428Z,86.08
2023-02-12T06:01:44.636Z,85.88
2023-02-12T06:02:44.461Z,85.63
2023-02-12T06:03:44.598Z,85.42
2023-02-12T06:04:46.395Z,85.00
2023-02-12T06:05:44.636Z,84.90
2023-02-12T06:06:44.366Z,84.80
2023-02-12T06:07:44.602Z,84.80
2023-02-12T06:08:44.344Z,84.69
2023-02-12T06:09:44.450Z,84.59
2023-02-12T06:10:44.338Z,84.69
2023-02-12T06:11:44.404Z,84.80
2023-02-12T06:12:44.292Z,85.11
2023-02-12T06:13:44.906Z,85.31
2023-02-12T06:14:44.506Z,85.31
2023-02-12T06:15:44.301Z,85.35
2023-02-12T06:16:44.416Z,85.46
2023-02-12T06:17:44.231Z,85.56
2023-02-12T06:18:44.466Z,85.52
2023-02-12T06:19:44.298Z,85.67
2023-02-12T06:20:44.201Z,85.63
2023-02-12T06:21:44.273Z,85.63
2023-02-12T06:22:44.223Z,85.63
2023-02-12T06:23:44.283Z,85.77
2023-02-12T06:24:44.142Z,85.88
2023-02-12T06:25:44.357Z,85.88
2023-02-12T06:26:44.138Z,86.08
2023-02-12T06:27:44.317Z,86.19
2023-02-12T06:28:44.080Z,86.19
2023-02-12T06:29:44.231Z,85.88
2023-02-12T06:30:44.105Z,85.67
2023-02-12T06:31:44.451Z,85.63
2023-02-12T06:32:44.041Z,85.63
2023-02-12T06:33:44.253Z,85.52
2023-02-12T06:34:44.225Z,85.56
2023-02-12T06:35:44.074Z,85.63
2023-02-12T06:36:44.043Z,85.73
2023-02-12T06:37:44.077Z,85.42
2023-02-12T06:38:43.969Z,85.21
2023-02-12T06:39:44.081Z,85.11
2023-02-12T06:40:43.923Z,85.00
2023-02-12T06:41:44.070Z,85.11
2023-02-12T06:42:43.938Z,85.00
2023-02-12T06:43:44.022Z,85.11
2023-02-12T06:44:45.006Z,85.00
2023-02-12T06:45:44.039Z,85.00
2023-02-12T06:46:44.176Z,85.00
2023-02-12T06:47:44.106Z,85.11
2023-02-12T06:48:44.431Z,85.21
2023-02-12T06:49:44.069Z,84.90
2023-02-12T06:50:43.815Z,84.90
2023-02-12T06:51:43.886Z,85.11
2023-02-12T06:52:43.821Z,85.25
2023-02-12T06:53:43.884Z,85.35
2023-02-12T06:54:43.772Z,85.31
2023-02-12T06:55:43.905Z,85.46
2023-02-12T06:56:43.739Z,85.46
2023-02-12T06:57:43.886Z,85.56
2023-02-12T06:58:43.766Z,85.46
2023-02-12T06:59:43.819Z,85.46
2023-02-12T07:00:43.729Z,85.35
2023-02-12T07:01:43.849Z,85.56
2023-02-12T07:02:43.658Z,85.67
2023-02-12T07:03:43.820Z,85.35
2023-02-12T07:04:43.632Z,85.04
2023-02-12T07:05:43.765Z,84.69
2023-02-12T07:06:43.623Z,84.42
2023-02-12T07:07:43.784Z,84.31
2023-02-12T07:08:43.626Z,84.42
2023-02-12T07:09:43.839Z,84.31
2023-02-12T07:10:43.561Z,84.31
2023-02-12T07:11:43.757Z,84.42
2023-02-12T07:12:43.537Z,84.42
2023-02-12T07:13:43.725Z,84.52
2023-02-12T07:14:43.554Z,84.63
2023-02-12T07:15:43.636Z,84.42
2023-02-12T07:16:43.624Z,84.63
2023-02-12T07:17:43.559Z,84.52
2023-02-12T07:18:43.497Z,84.31
2023-02-12T07:19:43.666Z,84.31
2023-02-12T07:20:43.462Z,84.21
2023-02-12T07:21:43.676Z,84.31
2023-02-12T07:22:43.458Z,84.73
2023-02-12T07:23:43.489Z,84.38
2023-02-12T07:24:43.467Z,84.17
2023-02-12T07:25:43.530Z,84.27
2023-02-12T07:26:43.389Z,84.27
2023-02-12T07:27:43.527Z,84.27
2023-02-12T07:28:43.393Z,84.38
2023-02-12T07:29:43.619Z,84.27
2023-02-12T07:30:43.407Z,84.06
2023-02-12T07:31:43.517Z,83.92
2023-02-12T07:32:43.294Z,83.82
2023-02-12T07:33:43.469Z,83.92
2023-02-12T07:34:43.291Z,83.92
2023-02-12T07:35:43.363Z,83.92
2023-02-12T07:36:43.264Z,83.92
2023-02-12T07:37:43.382Z,83.92
2023-02-12T07:38:43.236Z,83.92
2023-02-12T07:39:43.309Z,84.03
2023-02-12T07:40:43.202Z,83.99
2023-02-12T07:41:43.367Z,84.09
2023-02-12T07:42:43.302Z,83.99
2023-02-12T07:43:43.218Z,83.89
2023-02-12T07:44:43.314Z,83.68
2023-02-12T07:45:43.238Z,83.68
2023-02-12T07:46:44.999Z,83.58
2023-02-12T07:47:43.154Z,83.47
2023-02-12T07:48:43.128Z,83.47
2023-02-12T07:49:45.736Z,83.68
2023-02-12T07:50:43.156Z,83.84
2023-02-12T07:51:43.091Z,83.53
2023-02-12T07:52:43.210Z,83.43
2023-02-12T07:53:43.050Z,83.12
2023-02-12T07:54:43.171Z,82.98
2023-02-12T07:55:43.042Z,82.98
2023-02-12T07:56:43.268Z,82.87
2023-02-12T07:57:43.043Z,82.98
2023-02-12T07:58:43.209Z,82.98
2023-02-12T07:59:43.026Z,83.08
2023-02-12T08:00:42.990Z,82.98
2023-02-12T08:01:42.966Z,82.87
2023-02-12T08:02:43.074Z,82.77
2023-02-12T08:03:43.061Z,82.77
2023-02-12T08:04:43.069Z,83.18
2023-02-12T08:05:43.068Z,83.67
2023-02-12T08:06:42.894Z,82.94
2023-02-12T08:07:43.138Z,82.84
2023-02-12T08:08:43.071Z,82.63
2023-02-12T08:09:43.442Z,82.53
2023-02-12T08:10:42.887Z,82.94
2023-02-12T08:11:42.875Z,82.18
2023-02-12T08:12:42.894Z,81.24
2023-02-12T08:13:42.812Z,81.04
2023-02-12T08:14:42.906Z,81.14
2023-02-12T08:15:42.819Z,81.35
2023-02-12T08:16:42.895Z,80.73
2023-02-12T08:17:42.785Z,81.04
2023-02-12T08:18:42.850Z,81.38
2023-02-12T08:19:42.769Z,81.18
2023-02-12T08:20:42.839Z,81.28
2023-02-12T08:21:42.764Z,81.38
2023-02-12T08:22:42.788Z,81.38
2023-02-12T08:23:42.801Z,81.38
2023-02-12T08:24:42.810Z,81.70
2023-02-12T08:25:42.761Z,81.56
2023-02-12T08:26:42.691Z,81.87
2023-02-12T08:27:45.927Z,81.59
2023-02-12T08:28:44.807Z,81.90
2023-02-12T08:29:42.757Z,82.32
2023-02-12T08:30:49.538Z,82.53
2023-02-12T08:31:43.004Z,82.84
2023-02-12T08:32:42.675Z,82.46
2023-02-12T08:33:42.715Z,82.77
2023-02-12T08:34:42.686Z,82.98
2023-02-12T08:35:42.647Z,83.18
2023-02-12T08:36:42.708Z,83.29
2023-02-12T08:37:42.557Z,83.18
2023-02-12T08:38:42.691Z,83.08
2023-02-12T08:39:42.719Z,82.73
2023-02-12T08:40:42.530Z,82.21
2023-02-12T08:41:42.730Z,82.21
2023-02-12T08:42:42.530Z,81.80
2023-02-12T08:43:42.554Z,81.66
2023-02-12T08:44:42.407Z,81.35
2023-02-12T08:45:42.618Z,81.24
2023-02-12T08:46:42.457Z,81.24
2023-02-12T08:47:42.532Z,81.66
2023-02-12T08:48:42.364Z,81.76
2023-02-12T08:49:42.480Z,81.66
2023-02-12T08:50:42.354Z,81.72
2023-02-12T08:51:42.520Z,81.41
2023-02-12T08:52:43.965Z,81.51
2023-02-12T08:53:42.539Z,81.51
2023-02-12T08:54:42.283Z,81.06
2023-02-12T08:55:42.498Z,80.33
2023-02-12T08:56:42.258Z,80.33
2023-02-12T08:57:42.508Z,80.13
2023-02-12T08:58:42.224Z,80.44
2023-02-12T08:59:42.374Z,80.02
2023-02-12T09:00:42.344Z,80.23
2023-02-12T09:01:42.339Z,80.09
2023-02-12T09:02:42.383Z,80.51
2023-02-12T09:03:42.227Z,79.88
2023-02-12T09:04:42.380Z,79.68
2023-02-12T09:05:42.360Z,79.88
2023-02-12T09:06:42.133Z,80.51
2023-02-12T09:07:42.230Z,80.92
2023-02-12T09:08:42.122Z,81.02
2023-02-12T09:09:42.241Z,81.13
2023-02-12T09:10:42.232Z,80.71
2023-02-12T09:11:42.092Z,80.57
2023-02-12T09:12:42.174Z,81.09
2023-02-12T09:13:42.066Z,80.57
2023-02-12T09:14:42.204Z,80.26
2023-02-12T09:15:44.828Z,80.16
2023-02-12T09:16:42.153Z,80.36
2023-02-12T09:17:42.017Z,80.16
2023-02-12T09:18:42.067Z,80.12
2023-02-12T09:19:41.980Z,80.33
2023-02-12T09:20:42.113Z,80.43
2023-02-12T09:21:42.000Z,80.22
2023-02-12T09:22:42.037Z,80.12
2023-02-12T09:23:41.948Z,79.91
2023-02-12T09:24:42.560Z,80.54
2023-02-12T09:25:41.924Z,80.74
2023-02-12T09:26:42.122Z,80.64
2023-02-12T09:27:41.904Z,80.64
2023-02-12T09:28:42.158Z,79.98
2023-02-12T09:29:41.875Z,80.19
2023-02-12T09:30:42.090Z,80.40
2023-02-12T09:31:42.133Z,80.40
2023-02-12T09:32:41.830Z,79.98
2023-02-12T09:33:42.062Z,79.98
2023-02-12T09:34:41.877Z,80.19
2023-02-12T09:35:41.856Z,80.50
2023-02-12T09:36:41.923Z,80.36
2023-02-12T09:37:41.746Z,80.15
2023-02-12T09:38:41.858Z,80.26
2023-02-12T09:39:41.741Z,79.74
2023-02-12T09:40:41.852Z,79.80
2023-02-12T09:41:41.743Z,79.60
2023-02-12T09:42:41.790Z,78.88
2023-02-12T09:43:41.798Z,78.67
2023-02-12T09:44:41.829Z,78.46
2023-02-12T09:45:41.712Z,78.67
2023-02-12T09:46:41.903Z,78.98
2023-02-12T09:47:41.682Z,79.19
2023-02-12T09:48:41.848Z,79.25
2023-02-12T09:49:41.666Z,78.94
2023-02-12T09:50:41.740Z,78.84
2023-02-12T09:51:41.629Z,78.53
2023-02-12T09:52:41.754Z,78.42
2023-02-12T09:53:41.568Z,78.84
2023-02-12T09:54:41.723Z,78.84
2023-02-12T09:55:41.514Z,78.28
2023-02-12T09:56:41.698Z,78.08
2023-02-12T09:57:41.592Z,78.39
2023-02-12T09:58:41.524Z,78.18
2023-02-12T09:59:41.713Z,78.39
2023-02-12T10:00:41.514Z,78.18
2023-02-12T10:01:41.573Z,78.18
2023-02-12T10:02:41.547Z,78.28
2023-02-12T10:03:41.418Z,78.08
2023-02-12T10:04:55.087Z,77.94
2023-02-12T10:05:41.422Z,77.94
2023-02-12T10:06:41.452Z,78.25
2023-02-12T10:07:41.371Z,78.25
2023-02-12T10:08:41.584Z,77.94
2023-02-12T10:09:41.379Z,78.05
2023-02-12T10:10:41.653Z,77.70
2023-02-12T10:11:41.401Z,77.28
2023-02-12T10:12:41.420Z,77.39
2023-02-12T10:13:41.332Z,76.87
2023-02-12T10:14:41.432Z,77.08
2023-02-12T10:15:41.328Z,76.94
2023-02-12T10:16:41.430Z,76.63
2023-02-12T10:17:41.264Z,75.81
2023-02-12T10:18:41.391Z,75.49
2023-02-12T10:19:41.234Z,75.67
2023-02-12T10:20:41.822Z,75.29
2023-02-12T10:21:41.236Z,75.49
2023-02-12T10:22:55.864Z,76.01
2023-02-12T10:23:41.177Z,76.94
2023-02-12T10:24:41.294Z,76.59
2023-02-12T10:25:41.176Z,76.59
2023-02-12T10:26:41.340Z,76.49
2023-02-12T10:27:41.121Z,76.15
2023-02-12T10:28:41.382Z,75.32
2023-02-12T10:29:41.092Z,74.71
2023-02-12T10:30:41.260Z,74.67
2023-02-12T10:31:41.216Z,73.98
2023-02-12T10:32:41.137Z,74.40
2023-02-12T10:33:41.079Z,74.08
2023-02-12T10:34:41.402Z,74.08
2023-02-12T10:35:41.036Z,74.29
2023-02-12T10:36:41.176Z,74.08
2023-02-12T10:37:41.017Z,74.19
2023-02-12T10:38:41.168Z,73.98
2023-02-12T10:39:40.987Z,74.29
2023-02-12T10:40:41.081Z,74.08
2023-02-12T10:41:40.975Z,74.40
2023-02-12T10:42:41.304Z,74.50
2023-02-12T10:43:40.954Z,74.80
2023-02-12T10:44:41.161Z,75.29
2023-02-12T10:45:40.978Z,75.08
2023-02-12T10:46:41.097Z,74.46
2023-02-12T10:47:40.869Z,74.67
2023-02-12T10:48:41.028Z,74.16
2023-02-12T10:49:40.845Z,74.57
2023-02-12T10:50:41.049Z,74.22
2023-02-12T10:51:40.809Z,74.53
2023-02-12T10:52:41.108Z,74.84
2023-02-12T10:53:40.847Z,74.53
2023-02-12T10:54:41.050Z,73.98
2023-02-12T10:55:40.753Z,73.36
2023-02-12T10:56:40.960Z,73.98
2023-02-12T10:57:40.741Z,73.36
2023-02-12T10:58:40.861Z,72.64
2023-02-12T10:59:40.705Z,72.44
2023-02-12T11:00:40.889Z,72.75
2023-02-12T11:01:40.716Z,72.96
2023-02-12T11:02:40.948Z,73.40
2023-02-12T11:03:40.655Z,73.71
2023-02-12T11:04:41.123Z,74.40
2023-02-12T11:05:40.693Z,73.98
2023-02-12T11:06:40.775Z,73.68
2023-02-12T11:07:40.648Z,73.98
2023-02-12T11:08:40.837Z,73.36
2023-02-12T11:09:40.604Z,73.26
2023-02-12T11:10:40.698Z,73.16
2023-02-12T11:11:40.572Z,73.16
2023-02-12T11:12:40.702Z,73.33
2023-02-12T11:13:40.541Z,73.02
2023-02-12T11:14:40.680Z,72.61
2023-02-12T11:15:40.731Z,71.79
2023-02-12T11:16:40.557Z,71.75
2023-02-12T11:17:40.678Z,72.55
2023-02-12T11:18:40.564Z,71.69
2023-02-12T11:19:40.630Z,71.14
2023-02-12T11:20:40.541Z,70.01
2023-02-12T11:21:40.459Z,69.16
2023-02-12T11:22:40.677Z,68.48
2023-02-12T11:23:40.410Z,68.88
2023-02-12T11:24:40.673Z,68.30
2023-02-12T11:25:40.436Z,67.38
2023-02-12T11:26:40.529Z,67.86
2023-02-12T11:27:40.349Z,67.32
2023-02-12T11:28:40.652Z,66.91
2023-02-12T11:29:40.345Z,65.90
2023-02-12T11:30:40.535Z,64.20
2023-02-12T11:31:40.508Z,63.59
2023-02-12T11:32:40.534Z,62.84
2023-02-12T11:33:40.341Z,61.11
2023-02-12T11:34:40.570Z,57.48
2023-02-12T11:35:40.260Z,54.05
2023-02-12T11:36:40.466Z,52.06
2023-02-12T11:37:40.362Z,51.09
2023-02-12T11:38:40.370Z,50.34
2023-02-12T11:39:40.237Z,51.72
2023-02-12T11:40:40.380Z,53.85
2023-02-12T11:41:40.237Z,54.92
2023-02-12T11:42:40.405Z,56.32
2023-02-12T11:43:40.163Z,57.87
2023-02-12T11:44:40.366Z,58.75
2023-02-12T11:45:40.134Z,58.85
2023-02-12T11:46:40.507Z,59.80
2023-02-12T11:47:46.376Z,59.69
2023-02-12T11:48:40.229Z,59.77
2023-02-12T11:49:40.102Z,60.33
2023-02-12T11:50:40.316Z,60.77
2023-02-12T11:51:40.209Z,60.97
2023-02-12T11:52:40.081Z,61.51
2023-02-12T11:53:40.218Z,61.92
2023-02-12T11:54:40.031Z,62.26
2023-02-12T11:55:40.173Z,62.87
2023-02-12T11:56:40.033Z,62.80
2023-02-12T11:57:40.205Z,63.03
2023-02-12T11:58:40.038Z,63.65
2023-02-12T11:59:40.217Z,63.62
2023-02-12T12:00:39.959Z,63.62
2023-02-12T12:01:40.216Z,63.25
2023-02-12T12:02:39.927Z,62.30
2023-02-12T12:03:40.078Z,61.73
2023-02-12T12:04:39.945Z,60.78
2023-02-12T12:05:40.082Z,61.09
2023-02-12T12:06:39.907Z,60.48
2023-02-12T12:07:40.040Z,59.84
2023-02-12T12:08:39.891Z,59.61
2023-02-12T12:09:39.973Z,58.76
2023-02-12T12:10:39.855Z,58.13
2023-02-12T12:11:39.971Z,57.90
2023-02-12T12:12:40.045Z,56.73
2023-02-12T12:13:39.810Z,54.87
2023-02-12T12:14:40.048Z,55.07
2023-02-12T12:15:39.781Z,54.51
2023-02-12T12:16:40.078Z,53.85
2023-02-12T12:17:39.729Z,54.57
2023-02-12T12:18:39.860Z,54.21
2023-02-12T12:19:39.693Z,55.28
2023-02-12T12:20:39.899Z,56.63
2023-02-12T12:21:39.678Z,57.42
2023-02-12T12:22:39.856Z,59.18
2023-02-12T12:23:39.650Z,60.13
2023-02-12T12:24:39.774Z,60.26
2023-02-12T12:25:39.686Z,61.08
2023-02-12T12:26:39.769Z,60.55
2023-02-12T12:27:39.604Z,56.65
2023-02-12T12:28:39.744Z,56.04
2023-02-12T12:29:39.581Z,57.29
2023-02-12T12:30:39.745Z,56.68
2023-02-12T12:31:39.644Z,54.92
2023-02-12T12:32:39.810Z,51.22
2023-02-12T12:33:50.651Z,49.45
2023-02-12T12:34:39.521Z,49.35
2023-02-12T12:35:39.630Z,46.89
2023-02-12T12:36:39.533Z,46.17
2023-02-12T12:37:39.636Z,45.81
2023-02-12T12:38:39.532Z,47.08
2023-02-12T12:39:39.745Z,45.72
2023-02-12T12:40:39.472Z,41.75
2023-02-12T12:41:39.723Z,39.61
2023-02-12T12:42:39.480Z,36.13
2023-02-12T12:43:39.500Z,34.88
2023-02-12T12:44:39.388Z,33.97
2023-02-12T12:45:39.500Z,33.83
2023-02-12T12:46:39.427Z,33.93
2023-02-12T12:47:39.512Z,33.32
2023-02-12T12:48:39.515Z,32.09
2023-02-12T12:49:39.313Z,31.37
2023-02-12T12:50:39.498Z,31.24
2023-02-12T12:51:39.285Z,31.55
2023-02-12T12:52:39.443Z,32.20